sensor_id;sensor_type;location;lat;lon;timestamp;P1;durP1;ratioP1;P2;durP2;ratioP2
21416;SDS011;10869;52.238;10.716;2022-11-15T04:02:00;12.10;;;6.10;;
21416;SDS011;10869;52.238;10.716;2022-11-15T04:04:27;15.23;;;6.60;;
21416;SDS011;10869;52.238;10.716;2022-11-15T04:06:53;10.53;;;6.37;;
21416;SDS011;10869;52.238;10.716;2022-11-15T04:09:20;15.97;;;7.07;;
21416;SDS011;10869;52.238;10.716;2022-11-15T04:11:46;13.47;;;6.80;;
21416;SDS011;10869;52.238;10.716;2022-11-15T04:14:11;13.10;;;6.47;;
21416;SDS011;10869;52.238;10.716;2022-11-15T04:16:37;15.13;;;7.07;;
21416;SDS011;10869;52.238;10.716;2022-11-15T04:19:03;14.47;;;6.40;;
21416;SDS011;10869;52.238;10.716;2022-11-15T04:21:49;12.07;;;6.30;;
21416;SDS011;10869;52.238;10.716;2022-11-15T04:24:34;12.40;;;6.37;;
21416;SDS011;10869;52.238;10.716;2022-11-15T04:27:00;12.00;;;6.13;;
21416;SDS011;10869;52.238;10.716;2022-11-15T04:29:26;17.90;;;5.90;;
21416;SDS011;10869;52.238;10.716;2022-11-15T04:32:02;12.70;;;5.70;;
21416;SDS011;10869;52.238;10.716;2022-11-15T04:34:29;10.33;;;5.50;;
21416;SDS011;10869;52.238;10.716;2022-11-15T04:37:06;13.57;;;6.67;;
21416;SDS011;10869;52.238;10.716;2022-11-15T04:39:46;14.27;;;5.50;;
21416;SDS011;10869;52.238;10.716;2022-11-15T04:42:27;15.90;;;6.47;;
21416;SDS011;10869;52.238;10.716;2022-11-15T04:45:34;12.57;;;5.60;;
21416;SDS011;10869;52.238;10.716;2022-11-15T04:48:00;9.03;;;4.87;;
21416;SDS011;10869;52.238;10.716;2022-11-15T04:50:25;11.83;;;5.57;;
21416;SDS011;10869;52.238;10.716;2022-11-15T04:52:52;8.43;;;4.83;;
21416;SDS011;10869;52.238;10.716;2022-11-15T04:55:19;11.93;;;5.60;;
21416;SDS011;10869;52.238;10.716;2022-11-15T04:57:45;11.30;;;4.83;;
21416;SDS011;10869;52.238;10.716;2022-11-15T05:00:12;10.00;;;5.10;;
21416;SDS011;10869;52.238;10.716;2022-11-15T05:02:39;11.50;;;5.30;;
21416;SDS011;10869;52.238;10.716;2022-11-15T05:05:23;10.53;;;5.03;;
21416;SDS011;10869;52.238;10.716;2022-11-15T05:07:50;14.70;;;5.63;;
21416;SDS011;10869;52.238;10.716;2022-11-15T05:10:16;11.47;;;5.17;;
21416;SDS011;10869;52.238;10.716;2022-11-15T05:12:42;12.50;;;5.00;;
21416;SDS011;10869;52.238;10.716;2022-11-15T05:15:08;10.73;;;4.83;;
21416;SDS011;10869;52.238;10.716;2022-11-15T05:17:34;10.07;;;5.23;;
21416;SDS011;10869;52.238;10.716;2022-11-15T05:20:00;11.97;;;5.00;;
21416;SDS011;10869;52.238;10.716;2022-11-15T05:22:25;12.03;;;5.00;;
21416;SDS011;10869;52.238;10.716;2022-11-15T05:24:51;10.07;;;5.53;;
21416;SDS011;10869;52.238;10.716;2022-11-15T05:27:17;9.93;;;5.67;;
21416;SDS011;10869;52.238;10.716;2022-11-15T05:29:43;11.43;;;6.00;;
21416;SDS011;10869;52.238;10.716;2022-11-15T05:32:09;9.80;;;5.00;;
21416;SDS011;10869;52.238;10.716;2022-11-15T05:34:37;9.83;;;5.17;;
21416;SDS011;10869;52.238;10.716;2022-11-15T05:37:03;11.47;;;5.27;;
21416;SDS011;10869;52.238;10.716;2022-11-15T05:39:29;11.23;;;5.20;;
21416;SDS011;10869;52.238;10.716;2022-11-15T05:41:56;9.87;;;5.27;;
21416;SDS011;10869;52.238;10.716;2022-11-15T05:44:36;11.97;;;5.07;;
21416;SDS011;10869;52.238;10.716;2022-11-15T05:47:03;9.93;;;5.40;;
21416;SDS011;10869;52.238;10.716;2022-11-15T05:49:33;8.87;;;5.10;;
21416;SDS011;10869;52.238;10.716;2022-11-15T05:52:03;9.10;;;4.77;;
21416;SDS011;10869;52.238;10.716;2022-11-15T05:54:32;9.27;;;4.77;;
21416;SDS011;10869;52.238;10.716;2022-11-15T05:56:59;10.33;;;5.03;;
21416;SDS011;10869;52.238;10.716;2022-11-15T05:59:25;7.67;;;4.13;;
21416;SDS011;10869;52.238;10.716;2022-11-15T06:01:53;7.67;;;4.10;;
21416;SDS011;10869;52.238;10.716;2022-11-15T06:04:19;9.40;;;4.70;;
21416;SDS011;10869;52.238;10.716;2022-11-15T06:06:44;9.00;;;4.30;;
21416;SDS011;10869;52.238;10.716;2022-11-15T06:09:10;7.53;;;4.77;;
21416;SDS011;10869;52.238;10.716;2022-11-15T06:11:37;8.47;;;4.80;;
21416;SDS011;10869;52.238;10.716;2022-11-15T06:14:03;12.33;;;4.63;;
21416;SDS011;10869;52.238;10.716;2022-11-15T06:16:29;9.63;;;4.57;;
21416;SDS011;10869;52.238;10.716;2022-11-15T06:18:55;12.53;;;5.03;;
21416;SDS011;10869;52.238;10.716;2022-11-15T06:21:21;10.53;;;4.87;;
21416;SDS011;10869;52.238;10.716;2022-11-15T06:23:47;8.17;;;4.67;;
21416;SDS011;10869;52.238;10.716;2022-11-15T06:26:13;8.40;;;4.40;;
21416;SDS011;10869;52.238;10.716;2022-11-15T06:28:40;8.33;;;4.73;;
21416;SDS011;10869;52.238;10.716;2022-11-15T06:31:08;10.90;;;4.80;;
21416;SDS011;10869;52.238;10.716;2022-11-15T06:33:38;12.07;;;4.27;;
21416;SDS011;10869;52.238;10.716;2022-11-15T06:36:09;9.17;;;4.67;;
21416;SDS011;10869;52.238;10.716;2022-11-15T06:38:41;10.47;;;4.60;;
21416;SDS011;10869;52.238;10.716;2022-11-15T06:41:08;7.80;;;4.57;;
21416;SDS011;10869;52.238;10.716;2022-11-15T06:43:35;8.03;;;4.47;;
21416;SDS011;10869;52.238;10.716;2022-11-15T06:46:02;7.93;;;4.53;;
21416;SDS011;10869;52.238;10.716;2022-11-15T06:48:29;6.77;;;4.10;;
21416;SDS011;10869;52.238;10.716;2022-11-15T06:50:58;9.20;;;4.70;;
21416;SDS011;10869;52.238;10.716;2022-11-15T06:53:26;8.17;;;4.40;;
21416;SDS011;10869;52.238;10.716;2022-11-15T06:55:52;10.40;;;4.33;;
21416;SDS011;10869;52.238;10.716;2022-11-15T06:58:18;10.17;;;4.63;;
21416;SDS011;10869;52.238;10.716;2022-11-15T07:00:45;7.73;;;4.30;;
21416;SDS011;10869;52.238;10.716;2022-11-15T07:06:33;12.30;;;4.87;;
21416;SDS011;10869;52.238;10.716;2022-11-15T07:12:21;8.23;;;4.53;;
21416;SDS011;10869;52.238;10.716;2022-11-15T07:18:09;11.10;;;4.93;;
21416;SDS011;10869;52.238;10.716;2022-11-15T07:23:56;9.40;;;4.13;;
21416;SDS011;10869;52.238;10.716;2022-11-15T07:29:45;7.20;;;3.90;;
21416;SDS011;10869;52.238;10.716;2022-11-15T07:32:11;9.47;;;4.93;;
21416;SDS011;10869;52.238;10.716;2022-11-15T07:34:37;6.53;;;3.70;;
21416;SDS011;10869;52.238;10.716;2022-11-15T07:37:08;8.87;;;4.13;;
21416;SDS011;10869;52.238;10.716;2022-11-15T07:42:59;8.83;;;3.73;;
21416;SDS011;10869;52.238;10.716;2022-11-15T07:45:31;11.10;;;4.03;;
21416;SDS011;10869;52.238;10.716;2022-11-15T07:48:03;9.57;;;4.37;;
21416;SDS011;10869;52.238;10.716;2022-11-15T07:53:56;7.87;;;3.90;;
21416;SDS011;10869;52.238;10.716;2022-11-15T07:59:50;6.80;;;3.50;;
21416;SDS011;10869;52.238;10.716;2022-11-15T08:02:17;8.47;;;3.70;;
21416;SDS011;10869;52.238;10.716;2022-11-15T08:04:43;8.57;;;4.17;;
21416;SDS011;10869;52.238;10.716;2022-11-15T08:07:09;13.93;;;4.70;;
21416;SDS011;10869;52.238;10.716;2022-11-15T08:09:36;10.27;;;4.00;;
21416;SDS011;10869;52.238;10.716;2022-11-15T08:12:02;8.77;;;4.00;;
21416;SDS011;10869;52.238;10.716;2022-11-15T08:14:29;8.03;;;3.60;;
21416;SDS011;10869;52.238;10.716;2022-11-15T08:16:55;7.00;;;3.57;;
21416;SDS011;10869;52.238;10.716;2022-11-15T08:19:22;7.00;;;3.53;;
21416;SDS011;10869;52.238;10.716;2022-11-15T08:21:53;6.37;;;2.93;;
21416;SDS011;10869;52.238;10.716;2022-11-15T08:24:25;8.87;;;3.23;;
21416;SDS011;10869;52.238;10.716;2022-11-15T08:26:53;6.00;;;2.97;;
21416;SDS011;10869;52.238;10.716;2022-11-15T08:29:22;7.10;;;2.87;;
21416;SDS011;10869;52.238;10.716;2022-11-15T08:32:06;9.83;;;3.23;;
21416;SDS011;10869;52.238;10.716;2022-11-15T08:35:11;5.63;;;2.93;;
21416;SDS011;10869;52.238;10.716;2022-11-15T08:37:58;7.63;;;3.00;;
21416;SDS011;10869;52.238;10.716;2022-11-15T08:40:24;7.47;;;2.97;;
21416;SDS011;10869;52.238;10.716;2022-11-15T08:42:53;9.50;;;3.40;;
21416;SDS011;10869;52.238;10.716;2022-11-15T08:45:20;7.40;;;3.50;;
21416;SDS011;10869;52.238;10.716;2022-11-15T08:51:09;7.63;;;3.53;;
21416;SDS011;10869;52.238;10.716;2022-11-15T08:53:35;5.43;;;2.67;;
21416;SDS011;10869;52.238;10.716;2022-11-15T08:56:01;6.33;;;3.10;;
21416;SDS011;10869;52.238;10.716;2022-11-15T08:58:32;6.73;;;3.37;;
21416;SDS011;10869;52.238;10.716;2022-11-15T09:00:58;6.60;;;2.63;;
21416;SDS011;10869;52.238;10.716;2022-11-15T09:06:00;6.07;;;2.60;;
21416;SDS011;10869;52.238;10.716;2022-11-15T09:08:29;5.67;;;2.80;;
21416;SDS011;10869;52.238;10.716;2022-11-15T09:10:55;5.90;;;2.67;;
21416;SDS011;10869;52.238;10.716;2022-11-15T09:13:27;6.57;;;2.93;;
21416;SDS011;10869;52.238;10.716;2022-11-15T09:15:56;5.90;;;2.97;;
21416;SDS011;10869;52.238;10.716;2022-11-15T09:21:17;5.80;;;2.50;;
21416;SDS011;10869;52.238;10.716;2022-11-15T09:23:43;6.00;;;2.70;;
21416;SDS011;10869;52.238;10.716;2022-11-15T09:26:09;6.97;;;3.10;;
21416;SDS011;10869;52.238;10.716;2022-11-15T09:28:35;7.47;;;3.00;;
21416;SDS011;10869;52.238;10.716;2022-11-15T09:31:02;6.43;;;2.83;;
21416;SDS011;10869;52.238;10.716;2022-11-15T09:36:06;7.13;;;3.00;;
21416;SDS011;10869;52.238;10.716;2022-11-15T09:38:33;5.23;;;2.87;;
21416;SDS011;10869;52.238;10.716;2022-11-15T09:48:54;6.07;;;2.90;;
21416;SDS011;10869;52.238;10.716;2022-11-15T09:54:37;5.33;;;2.73;;
21416;SDS011;10869;52.238;10.716;2022-11-15T09:56:45;6.07;;;3.10;;
21416;SDS011;10869;52.238;10.716;2022-11-15T10:04:54;5.90;;;2.20;;
21416;SDS011;10869;52.238;10.716;2022-11-15T10:07:39;5.90;;;2.47;;
21416;SDS011;10869;52.238;10.716;2022-11-15T10:12:55;4.93;;;2.43;;
21416;SDS011;10869;52.238;10.716;2022-11-15T10:15:22;4.83;;;2.50;;
21416;SDS011;10869;52.238;10.716;2022-11-15T10:20:25;4.63;;;2.20;;
21416;SDS011;10869;52.238;10.716;2022-11-15T10:22:53;8.80;;;3.13;;
21416;SDS011;10869;52.238;10.716;2022-11-15T10:25:24;4.03;;;1.83;;
21416;SDS011;10869;52.238;10.716;2022-11-15T10:38:57;6.17;;;2.40;;
21416;SDS011;10869;52.238;10.716;2022-11-15T10:44:02;5.50;;;2.03;;
21416;SDS011;10869;52.238;10.716;2022-11-15T10:46:32;8.77;;;2.83;;
21416;SDS011;10869;52.238;10.716;2022-11-15T10:49:15;6.90;;;3.17;;
21416;SDS011;10869;52.238;10.716;2022-11-15T11:07:19;5.97;;;2.33;;
21416;SDS011;10869;52.238;10.716;2022-11-15T11:09:48;6.27;;;2.50;;
21416;SDS011;10869;52.238;10.716;2022-11-15T11:12:32;4.27;;;2.33;;
21416;SDS011;10869;52.238;10.716;2022-11-15T11:15:05;6.77;;;2.73;;
21416;SDS011;10869;52.238;10.716;2022-11-15T11:20:38;8.37;;;2.70;;
21416;SDS011;10869;52.238;10.716;2022-11-15T11:23:23;5.23;;;2.30;;
21416;SDS011;10869;52.238;10.716;2022-11-15T11:36:42;5.87;;;1.90;;
21416;SDS011;10869;52.238;10.716;2022-11-15T11:42:08;5.13;;;2.53;;
21416;SDS011;10869;52.238;10.716;2022-11-15T11:44:52;6.30;;;2.53;;
21416;SDS011;10869;52.238;10.716;2022-11-15T11:47:37;5.43;;;2.47;;
21416;SDS011;10869;52.238;10.716;2022-11-15T11:50:17;5.33;;;2.60;;
21416;SDS011;10869;52.238;10.716;2022-11-15T12:01:12;4.17;;;2.00;;
21416;SDS011;10869;52.238;10.716;2022-11-15T12:07:15;6.27;;;3.10;;
21416;SDS011;10869;52.238;10.716;2022-11-15T12:09:59;7.03;;;3.00;;
21416;SDS011;10869;52.238;10.716;2022-11-15T12:17:55;9.40;;;3.53;;
21416;SDS011;10869;52.238;10.716;2022-11-15T12:20:27;7.93;;;2.93;;
21416;SDS011;10869;52.238;10.716;2022-11-15T12:23:01;6.53;;;2.60;;
21416;SDS011;10869;52.238;10.716;2022-11-15T12:28:34;5.17;;;2.67;;
21416;SDS011;10869;52.238;10.716;2022-11-15T12:36:53;5.73;;;2.50;;
21416;SDS011;10869;52.238;10.716;2022-11-15T12:42:44;7.53;;;2.70;;
21416;SDS011;10869;52.238;10.716;2022-11-15T12:47:56;4.87;;;2.10;;
21416;SDS011;10869;52.238;10.716;2022-11-15T13:02:17;8.03;;;3.37;;
21416;SDS011;10869;52.238;10.716;2022-11-15T13:04:53;5.10;;;2.60;;
21416;SDS011;10869;52.238;10.716;2022-11-15T13:07:58;10.87;;;5.53;;
21416;SDS011;10869;52.238;10.716;2022-11-15T13:12:58;14.53;;;3.93;;
21416;SDS011;10869;52.238;10.716;2022-11-15T13:20:54;6.60;;;2.70;;
21416;SDS011;10869;52.238;10.716;2022-11-15T13:26:46;9.43;;;3.20;;
21416;SDS011;10869;52.238;10.716;2022-11-15T13:29:18;5.87;;;2.50;;
21416;SDS011;10869;52.238;10.716;2022-11-15T13:31:45;6.03;;;2.90;;
21416;SDS011;10869;52.238;10.716;2022-11-15T13:34:16;7.17;;;2.70;;
21416;SDS011;10869;52.238;10.716;2022-11-15T13:36:44;7.30;;;2.73;;
21416;SDS011;10869;52.238;10.716;2022-11-15T13:39:23;6.00;;;2.80;;
21416;SDS011;10869;52.238;10.716;2022-11-15T13:41:59;7.83;;;2.90;;
21416;SDS011;10869;52.238;10.716;2022-11-15T13:47:06;5.60;;;2.87;;
21416;SDS011;10869;52.238;10.716;2022-11-15T13:49:43;6.57;;;2.40;;
21416;SDS011;10869;52.238;10.716;2022-11-15T13:52:13;6.57;;;2.73;;
21416;SDS011;10869;52.238;10.716;2022-11-15T13:54:58;6.03;;;2.57;;
21416;SDS011;10869;52.238;10.716;2022-11-15T13:57:39;6.30;;;2.77;;
21416;SDS011;10869;52.238;10.716;2022-11-15T14:03:21;5.77;;;2.93;;
21416;SDS011;10869;52.238;10.716;2022-11-15T14:08:38;5.63;;;2.70;;
21416;SDS011;10869;52.238;10.716;2022-11-15T14:11:06;7.23;;;3.43;;
21416;SDS011;10869;52.238;10.716;2022-11-15T14:13:40;8.17;;;4.17;;
21416;SDS011;10869;52.238;10.716;2022-11-15T14:16:20;8.70;;;3.93;;
21416;SDS011;10869;52.238;10.716;2022-11-15T14:18:57;11.80;;;4.40;;
21416;SDS011;10869;52.238;10.716;2022-11-15T14:21:23;10.80;;;4.77;;
21416;SDS011;10869;52.238;10.716;2022-11-15T14:23:49;10.63;;;4.57;;
21416;SDS011;10869;52.238;10.716;2022-11-15T14:31:24;11.33;;;4.57;;
21416;SDS011;10869;52.238;10.716;2022-11-15T14:33:50;12.57;;;5.50;;
21416;SDS011;10869;52.238;10.716;2022-11-15T14:36:16;12.67;;;5.00;;
21416;SDS011;10869;52.238;10.716;2022-11-15T14:38:44;8.97;;;4.73;;
21416;SDS011;10869;52.238;10.716;2022-11-15T14:41:17;12.03;;;5.20;;
21416;SDS011;10869;52.238;10.716;2022-11-15T14:43:45;23.67;;;10.73;;
21416;SDS011;10869;52.238;10.716;2022-11-15T14:46:11;14.67;;;9.53;;
21416;SDS011;10869;52.238;10.716;2022-11-15T14:48:37;11.10;;;6.67;;
21416;SDS011;10869;52.238;10.716;2022-11-15T14:51:03;16.80;;;9.13;;
21416;SDS011;10869;52.238;10.716;2022-11-15T14:53:34;24.90;;;14.47;;
21416;SDS011;10869;52.238;10.716;2022-11-15T14:56:00;15.00;;;8.40;;
21416;SDS011;10869;52.238;10.716;2022-11-15T14:58:26;20.17;;;9.33;;
21416;SDS011;10869;52.238;10.716;2022-11-15T15:00:51;13.63;;;8.10;;
21416;SDS011;10869;52.238;10.716;2022-11-15T15:03:17;13.33;;;6.67;;
21416;SDS011;10869;52.238;10.716;2022-11-15T15:05:43;12.70;;;6.47;;
21416;SDS011;10869;52.238;10.716;2022-11-15T15:08:09;9.60;;;5.67;;
21416;SDS011;10869;52.238;10.716;2022-11-15T15:10:41;14.57;;;6.00;;
21416;SDS011;10869;52.238;10.716;2022-11-15T15:13:17;11.13;;;5.53;;
21416;SDS011;10869;52.238;10.716;2022-11-15T15:15:45;10.53;;;5.83;;
21416;SDS011;10869;52.238;10.716;2022-11-15T15:18:11;11.07;;;5.50;;
21416;SDS011;10869;52.238;10.716;2022-11-15T15:20:38;10.10;;;5.30;;
21416;SDS011;10869;52.238;10.716;2022-11-15T15:23:08;11.87;;;5.70;;
21416;SDS011;10869;52.238;10.716;2022-11-15T15:25:43;13.60;;;5.40;;
21416;SDS011;10869;52.238;10.716;2022-11-15T15:28:10;15.43;;;6.30;;
21416;SDS011;10869;52.238;10.716;2022-11-15T15:30:37;12.80;;;5.80;;
21416;SDS011;10869;52.238;10.716;2022-11-15T15:33:03;11.97;;;6.17;;
21416;SDS011;10869;52.238;10.716;2022-11-15T15:35:29;10.87;;;5.90;;
21416;SDS011;10869;52.238;10.716;2022-11-15T15:37:57;15.23;;;5.70;;
21416;SDS011;10869;52.238;10.716;2022-11-15T15:40:24;12.57;;;5.93;;
21416;SDS011;10869;52.238;10.716;2022-11-15T15:42:50;15.20;;;6.50;;
21416;SDS011;10869;52.238;10.716;2022-11-15T15:45:17;14.33;;;6.33;;
21416;SDS011;10869;52.238;10.716;2022-11-15T15:47:43;13.70;;;6.13;;
21416;SDS011;10869;52.238;10.716;2022-11-15T15:53:36;16.23;;;6.87;;
21416;SDS011;10869;52.238;10.716;2022-11-15T15:59:23;10.20;;;6.23;;
21416;SDS011;10869;52.238;10.716;2022-11-15T16:05:11;12.10;;;5.90;;
21416;SDS011;10869;52.238;10.716;2022-11-15T16:07:38;13.97;;;6.30;;
21416;SDS011;10869;52.238;10.716;2022-11-15T16:13:26;14.53;;;5.70;;
21416;SDS011;10869;52.238;10.716;2022-11-15T16:15:52;10.30;;;5.17;;
21416;SDS011;10869;52.238;10.716;2022-11-15T16:18:19;9.90;;;5.67;;
21416;SDS011;10869;52.238;10.716;2022-11-15T16:20:46;13.37;;;5.20;;
21416;SDS011;10869;52.238;10.716;2022-11-15T16:23:19;11.37;;;5.63;;
21416;SDS011;10869;52.238;10.716;2022-11-15T16:25:49;10.97;;;4.90;;
21416;SDS011;10869;52.238;10.716;2022-11-15T16:28:19;10.00;;;5.30;;
21416;SDS011;10869;52.238;10.716;2022-11-15T16:30:48;9.23;;;4.77;;
21416;SDS011;10869;52.238;10.716;2022-11-15T16:33:14;11.30;;;5.27;;
21416;SDS011;10869;52.238;10.716;2022-11-15T16:35:42;8.17;;;4.37;;
21416;SDS011;10869;52.238;10.716;2022-11-15T16:38:13;11.73;;;5.27;;
21416;SDS011;10869;52.238;10.716;2022-11-15T16:40:46;10.30;;;4.10;;
21416;SDS011;10869;52.238;10.716;2022-11-15T16:46:45;8.20;;;3.67;;
21416;SDS011;10869;52.238;10.716;2022-11-15T16:52:38;8.47;;;4.20;;
21416;SDS011;10869;52.238;10.716;2022-11-15T16:55:04;10.27;;;3.47;;
21416;SDS011;10869;52.238;10.716;2022-11-15T16:57:30;10.53;;;4.13;;
21416;SDS011;10869;52.238;10.716;2022-11-15T16:59:56;8.10;;;3.97;;
21416;SDS011;10869;52.238;10.716;2022-11-15T17:02:21;11.63;;;3.93;;
21416;SDS011;10869;52.238;10.716;2022-11-15T17:04:47;9.77;;;3.90;;
21416;SDS011;10869;52.238;10.716;2022-11-15T17:10:37;8.50;;;3.53;;
21416;SDS011;10869;52.238;10.716;2022-11-15T17:16:27;9.03;;;3.60;;
21416;SDS011;10869;52.238;10.716;2022-11-15T17:22:31;8.03;;;3.30;;
21416;SDS011;10869;52.238;10.716;2022-11-15T17:24:57;7.73;;;3.97;;
21416;SDS011;10869;52.238;10.716;2022-11-15T17:30:45;9.23;;;4.33;;
21416;SDS011;10869;52.238;10.716;2022-11-15T17:33:11;7.57;;;3.60;;
21416;SDS011;10869;52.238;10.716;2022-11-15T17:35:37;8.70;;;4.27;;
21416;SDS011;10869;52.238;10.716;2022-11-15T17:41:26;7.20;;;4.00;;
21416;SDS011;10869;52.238;10.716;2022-11-15T17:43:52;6.20;;;3.43;;
21416;SDS011;10869;52.238;10.716;2022-11-15T17:46:21;11.60;;;4.07;;
21416;SDS011;10869;52.238;10.716;2022-11-15T17:48:47;9.13;;;3.70;;
21416;SDS011;10869;52.238;10.716;2022-11-15T17:54:36;7.40;;;3.90;;
21416;SDS011;10869;52.238;10.716;2022-11-15T17:57:02;7.20;;;3.50;;
21416;SDS011;10869;52.238;10.716;2022-11-15T17:59:28;8.37;;;3.50;;
21416;SDS011;10869;52.238;10.716;2022-11-15T18:01:54;9.53;;;4.30;;
21416;SDS011;10869;52.238;10.716;2022-11-15T18:04:19;8.80;;;3.70;;
21416;SDS011;10869;52.238;10.716;2022-11-15T18:06:52;8.00;;;4.30;;
21416;SDS011;10869;52.238;10.716;2022-11-15T18:09:19;7.43;;;4.17;;
21416;SDS011;10869;52.238;10.716;2022-11-15T18:11:47;11.37;;;3.87;;
21416;SDS011;10869;52.238;10.716;2022-11-15T18:14:15;7.67;;;3.53;;
21416;SDS011;10869;52.238;10.716;2022-11-15T18:16:42;9.80;;;3.50;;
21416;SDS011;10869;52.238;10.716;2022-11-15T18:19:09;6.47;;;3.30;;
21416;SDS011;10869;52.238;10.716;2022-11-15T18:21:44;8.43;;;3.90;;
21416;SDS011;10869;52.238;10.716;2022-11-15T18:26:55;8.20;;;3.60;;
21416;SDS011;10869;52.238;10.716;2022-11-15T18:29:22;9.97;;;4.20;;
21416;SDS011;10869;52.238;10.716;2022-11-15T18:31:49;9.73;;;3.60;;
21416;SDS011;10869;52.238;10.716;2022-11-15T18:37:41;7.53;;;3.57;;
21416;SDS011;10869;52.238;10.716;2022-11-15T18:40:07;7.73;;;3.20;;
21416;SDS011;10869;52.238;10.716;2022-11-15T18:42:34;7.87;;;3.10;;
21416;SDS011;10869;52.238;10.716;2022-11-15T18:44:59;6.47;;;3.20;;
21416;SDS011;10869;52.238;10.716;2022-11-15T18:47:30;6.90;;;3.30;;
21416;SDS011;10869;52.238;10.716;2022-11-15T18:49:56;8.93;;;3.50;;
21416;SDS011;10869;52.238;10.716;2022-11-15T18:52:23;8.00;;;3.20;;
21416;SDS011;10869;52.238;10.716;2022-11-15T18:54:49;9.20;;;3.93;;
21416;SDS011;10869;52.238;10.716;2022-11-15T18:57:15;6.60;;;3.87;;
21416;SDS011;10869;52.238;10.716;2022-11-15T18:59:40;7.80;;;3.60;;
21416;SDS011;10869;52.238;10.716;2022-11-15T19:02:08;7.67;;;3.50;;
21416;SDS011;10869;52.238;10.716;2022-11-15T19:04:36;7.00;;;3.30;;
21416;SDS011;10869;52.238;10.716;2022-11-15T19:07:02;6.60;;;3.60;;
21416;SDS011;10869;52.238;10.716;2022-11-15T19:09:28;5.50;;;2.90;;
21416;SDS011;10869;52.238;10.716;2022-11-15T19:11:56;7.80;;;3.37;;
21416;SDS011;10869;52.238;10.716;2022-11-15T19:14:26;9.20;;;3.33;;
21416;SDS011;10869;52.238;10.716;2022-11-15T19:16:52;5.90;;;2.63;;
21416;SDS011;10869;52.238;10.716;2022-11-15T19:19:19;6.67;;;2.97;;
21416;SDS011;10869;52.238;10.716;2022-11-15T19:21:50;7.60;;;3.07;;
21416;SDS011;10869;52.238;10.716;2022-11-15T19:24:21;6.90;;;2.90;;
21416;SDS011;10869;52.238;10.716;2022-11-15T19:26:47;5.83;;;3.10;;
21416;SDS011;10869;52.238;10.716;2022-11-15T19:29:13;5.73;;;3.03;;
21416;SDS011;10869;52.238;10.716;2022-11-15T19:31:39;5.57;;;2.87;;
21416;SDS011;10869;52.238;10.716;2022-11-15T19:34:06;7.30;;;2.67;;
21416;SDS011;10869;52.238;10.716;2022-11-15T19:36:36;6.83;;;3.13;;
21416;SDS011;10869;52.238;10.716;2022-11-15T19:39:05;6.80;;;2.83;;
21416;SDS011;10869;52.238;10.716;2022-11-15T19:41:34;4.93;;;2.50;;
21416;SDS011;10869;52.238;10.716;2022-11-15T19:44:02;6.00;;;3.10;;
21416;SDS011;10869;52.238;10.716;2022-11-15T19:46:30;6.17;;;3.00;;
21416;SDS011;10869;52.238;10.716;2022-11-15T19:49:00;8.27;;;3.20;;
21416;SDS011;10869;52.238;10.716;2022-11-15T19:51:27;5.93;;;2.93;;
21416;SDS011;10869;52.238;10.716;2022-11-15T19:53:55;7.20;;;3.53;;
21416;SDS011;10869;52.238;10.716;2022-11-15T19:59:54;8.03;;;3.63;;
21416;SDS011;10869;52.238;10.716;2022-11-15T20:02:20;8.13;;;3.40;;
21416;SDS011;10869;52.238;10.716;2022-11-15T20:04:46;8.43;;;3.17;;
21416;SDS011;10869;52.238;10.716;2022-11-15T20:07:12;7.40;;;3.23;;
21416;SDS011;10869;52.238;10.716;2022-11-15T20:09:38;8.17;;;3.53;;
21416;SDS011;10869;52.238;10.716;2022-11-15T20:12:03;7.33;;;3.30;;
21416;SDS011;10869;52.238;10.716;2022-11-15T20:14:29;8.77;;;4.23;;
21416;SDS011;10869;52.238;10.716;2022-11-15T20:16:55;6.33;;;3.47;;
21416;SDS011;10869;52.238;10.716;2022-11-15T20:19:24;8.47;;;3.20;;
21416;SDS011;10869;52.238;10.716;2022-11-15T20:21:50;7.67;;;3.70;;
21416;SDS011;10869;52.238;10.716;2022-11-15T20:24:16;7.67;;;3.13;;
21416;SDS011;10869;52.238;10.716;2022-11-15T20:26:42;6.70;;;3.10;;
21416;SDS011;10869;52.238;10.716;2022-11-15T20:29:08;6.07;;;2.97;;
21416;SDS011;10869;52.238;10.716;2022-11-15T20:31:34;7.37;;;3.37;;
21416;SDS011;10869;52.238;10.716;2022-11-15T20:34:00;8.83;;;3.30;;
21416;SDS011;10869;52.238;10.716;2022-11-15T20:36:26;6.97;;;3.30;;
21416;SDS011;10869;52.238;10.716;2022-11-15T20:42:15;8.07;;;3.77;;
21416;SDS011;10869;52.238;10.716;2022-11-15T20:48:06;6.07;;;2.87;;
21416;SDS011;10869;52.238;10.716;2022-11-15T20:53:55;7.10;;;2.77;;
21416;SDS011;10869;52.238;10.716;2022-11-15T20:56:22;6.00;;;2.60;;
21416;SDS011;10869;52.238;10.716;2022-11-15T20:58:49;8.77;;;3.10;;
21416;SDS011;10869;52.238;10.716;2022-11-15T21:04:37;7.90;;;3.20;;
21416;SDS011;10869;52.238;10.716;2022-11-15T21:10:25;9.43;;;2.83;;
21416;SDS011;10869;52.238;10.716;2022-11-15T21:13:09;7.90;;;2.70;;
21416;SDS011;10869;52.238;10.716;2022-11-15T21:15:37;9.70;;;3.40;;
21416;SDS011;10869;52.238;10.716;2022-11-15T21:18:13;7.20;;;3.20;;
21416;SDS011;10869;52.238;10.716;2022-11-15T21:20:40;6.77;;;2.93;;
21416;SDS011;10869;52.238;10.716;2022-11-15T21:26:29;5.60;;;2.87;;
21416;SDS011;10869;52.238;10.716;2022-11-15T21:32:21;5.63;;;2.83;;
21416;SDS011;10869;52.238;10.716;2022-11-15T21:34:47;6.87;;;3.00;;
21416;SDS011;10869;52.238;10.716;2022-11-15T21:37:13;7.53;;;2.73;;
21416;SDS011;10869;52.238;10.716;2022-11-15T21:39:39;6.57;;;3.23;;
21416;SDS011;10869;52.238;10.716;2022-11-15T21:45:38;9.43;;;3.37;;
21416;SDS011;10869;52.238;10.716;2022-11-15T21:48:44;5.57;;;3.07;;
21416;SDS011;10869;52.238;10.716;2022-11-15T21:51:30;8.63;;;4.13;;
21416;SDS011;10869;52.238;10.716;2022-11-15T21:54:03;8.63;;;3.17;;
21416;SDS011;10869;52.238;10.716;2022-11-15T21:56:33;6.20;;;2.93;;
21416;SDS011;10869;52.238;10.716;2022-11-15T21:59:23;7.67;;;2.80;;
21416;SDS011;10869;52.238;10.716;2022-11-15T22:01:55;8.17;;;3.20;;
21416;SDS011;10869;52.238;10.716;2022-11-15T22:04:46;6.40;;;2.90;;
21416;SDS011;10869;52.238;10.716;2022-11-15T22:07:16;6.67;;;3.00;;
21416;SDS011;10869;52.238;10.716;2022-11-15T22:09:50;7.97;;;3.33;;
21416;SDS011;10869;52.238;10.716;2022-11-15T22:12:20;5.53;;;2.60;;
21416;SDS011;10869;52.238;10.716;2022-11-15T22:14:55;6.13;;;2.57;;
21416;SDS011;10869;52.238;10.716;2022-11-15T22:17:25;7.20;;;2.53;;
21416;SDS011;10869;52.238;10.716;2022-11-15T22:20:18;5.87;;;2.57;;
21416;SDS011;10869;52.238;10.716;2022-11-15T22:22:59;10.97;;;2.97;;
21416;SDS011;10869;52.238;10.716;2022-11-15T22:25:31;8.70;;;2.10;;
21416;SDS011;10869;52.238;10.716;2022-11-15T22:38:18;7.70;;;2.90;;
21416;SDS011;10869;52.238;10.716;2022-11-15T22:43:20;5.27;;;2.63;;
21416;SDS011;10869;52.238;10.716;2022-11-15T22:48:14;8.70;;;2.60;;
21416;SDS011;10869;52.238;10.716;2022-11-15T22:50:43;8.33;;;2.43;;
21416;SDS011;10869;52.238;10.716;2022-11-15T22:53:09;6.30;;;2.90;;
21416;SDS011;10869;52.238;10.716;2022-11-15T22:55:40;5.93;;;2.40;;
21416;SDS011;10869;52.238;10.716;2022-11-15T22:58:28;7.90;;;2.60;;
21416;SDS011;10869;52.238;10.716;2022-11-15T23:01:00;6.87;;;2.90;;
21416;SDS011;10869;52.238;10.716;2022-11-15T23:03:34;8.03;;;2.83;;
21416;SDS011;10869;52.238;10.716;2022-11-15T23:06:04;6.70;;;3.03;;
21416;SDS011;10869;52.238;10.716;2022-11-15T23:12:16;6.70;;;2.87;;
21416;SDS011;10869;52.238;10.716;2022-11-15T23:15:01;10.23;;;2.63;;
21416;SDS011;10869;52.238;10.716;2022-11-15T23:17:34;7.67;;;2.40;;